| time (UTC) | temp C | wind direction | speed KPH | gust KPH | rain 1hr cm | rain 24hr cm | rain mn cm | humidity % | barometer mb |
| 20260510203317 | -17 | 30 | 4.8 | 4.8 | 0.00 | 0.00 | 0.00 | 1019.5 | |
| 20260510202816 | -17 | 248 | 3.2 | 3.2 | 0.00 | 0.00 | 0.00 | 1019.5 | |
| 20260510202312 | -17 | 10 | 0.0 | 0.0 | 0.00 | 0.00 | 0.00 | 1019.5 | |
| 20260510201809 | -17 | 62 | 3.2 | 3.2 | 0.00 | 0.00 | 0.00 | 1019.5 | |
| 20260510201306 | -17 | 89 | 4.8 | 4.8 | 0.00 | 0.00 | 0.00 | 1019.5 | |
| 20260510200803 | -17 | 55 | 6.4 | 6.4 | 0.00 | 0.00 | 0.00 | 1019.5 | |
| 20260510200301 | -17 | 61 | 3.2 | 3.2 | 0.00 | 0.00 | 0.00 | 1019.5 | |
| 20260510195756 | -17 | 60 | 6.4 | 6.4 | 0.00 | 0.00 | 0.00 | 1019.9 | |
| 20260510195253 | -17 | 60 | 4.8 | 6.4 | 0.00 | 0.00 | 0.00 | 1019.9 | |
| 20260510194753 | -17 | 10 | 4.8 | 4.8 | 0.00 | 0.00 | 0.00 | 1019.9 | |
| 20260510194250 | -17 | 37 | 3.2 | 3.2 | 0.00 | 0.00 | 0.00 | 1019.9 | |
| 20260510193745 | -17 | 0 | 6.4 | 6.4 | 0.00 | 0.00 | 0.00 | 1019.9 | |
| 20260510193240 | -17 | 45 | 1.6 | 1.6 | 0.00 | 0.00 | 0.00 | 1019.9 | |
| 20260510192736 | -17 | 331 | 4.8 | 6.4 | 0.00 | 0.00 | 0.00 | 1019.5 | |
| 20260510192231 | -17 | 90 | 6.4 | 8.0 | 0.00 | 0.00 | 0.00 | 1019.5 | |
| 20260510191727 | -17 | 270 | 3.2 | 3.2 | 0.00 | 0.00 | 0.00 | 1019.5 | |
| 20260510191218 | -17 | 6 | 8.0 | 8.0 | 0.00 | 0.00 | 0.00 | 1019.9 | |
| 20260510190716 | -17 | 352 | 4.8 | 6.4 | 0.00 | 0.00 | 0.00 | 1019.9 | |
| 20260510190213 | -17 | 72 | 4.8 | 4.8 | 0.00 | 0.00 | 0.00 | 1019.9 | |
| 20260510185710 | -17 | 66 | 3.2 | 3.2 | 0.00 | 0.00 | 0.00 | 1019.5 | |
| 20260510185208 | -17 | 72 | 8.0 | 8.0 | 0.00 | 0.00 | 0.00 | 1019.5 | |
| 20260510184704 | -17 | 305 | 6.4 | 6.4 | 0.00 | 0.00 | 0.00 | 1019.5 | |
| 20260510184200 | -17 | 12 | 3.2 | 3.2 | 0.00 | 0.00 | 0.00 | 1019.5 | |
| 20260510183655 | -17 | 191 | 6.4 | 6.4 | 0.00 | 0.00 | 0.00 | 1019.5 | |
| 20260510183150 | -17 | 18 | 9.7 | 9.7 | 0.00 | 0.00 | 0.00 | 1019.5 | |
| 20260510182647 | -17 | 60 | 11.3 | 14.5 | 0.00 | 0.00 | 0.00 | 1019.5 | |
| 20260510182143 | -17 | 66 | 11.3 | 12.9 | 0.00 | 0.00 | 0.00 | 1019.5 | |
| 20260510181640 | -17 | 252 | 4.8 | 6.4 | 0.00 | 0.00 | 0.00 | 1019.5 | |
| 20260510181137 | -17 | 336 | 6.4 | 8.0 | 0.00 | 0.00 | 0.00 | 1019.2 | |
| 20260510180633 | -17 | 36 | 6.4 | 6.4 | 0.00 | 0.00 | 0.00 | 1019.2 | |
| 20260510180131 | -17 | 336 | 9.7 | 9.7 | 0.00 | 0.00 | 0.00 | 1019.2 | |
| 20260510175626 | -17 | 36 | 9.7 | 11.3 | 0.00 | 0.00 | 0.00 | 1019.2 | |
| 20260510175122 | -17 | 285 | 9.7 | 9.7 | 0.00 | 0.00 | 0.00 | 1019.2 | |
| 20260510174620 | -17 | 342 | 0.0 | 0.0 | 0.00 | 0.00 | 0.00 | 1019.2 | |
| 20260510174118 | -17 | 54 | 6.4 | 6.4 | 0.00 | 0.00 | 0.00 | 1019.5 | |
| 20260510173613 | -17 | 55 | 9.7 | 9.7 | 0.00 | 0.00 | 0.00 | 1019.5 | |
| 20260510173110 | -17 | 316 | 4.8 | 6.4 | 0.00 | 0.00 | 0.00 | 1019.5 | |
| 20260510172605 | -17 | 38 | 9.7 | 11.3 | 0.00 | 0.00 | 0.00 | 1019.5 | |
| 20260510172101 | -17 | 12 | 6.4 | 8.0 | 0.00 | 0.00 | 0.00 | 1019.5 | |
| 20260510171558 | -17 | 351 | 9.7 | 11.3 | 0.00 | 0.00 | 0.00 | 1019.5 | |
| 20260510171055 | -17 | 324 | 3.2 | 3.2 | 0.00 | 0.00 | 0.00 | 1019.5 | |
| 20260510170552 | -17 | 22 | 6.4 | 6.4 | 0.00 | 0.00 | 0.00 | 1019.5 | |
| 20260510170049 | -17 | 348 | 6.4 | 6.4 | 0.00 | 0.00 | 0.00 | 1019.2 | |
| 20260510165544 | -17 | 348 | 11.3 | 14.5 | 0.00 | 0.00 | 0.00 | 1019.2 | |
| 20260510165040 | -17 | 316 | 11.3 | 12.9 | 0.00 | 0.00 | 0.00 | 1019.2 | |
| 20260510164538 | -17 | 316 | 8.0 | 9.7 | 0.00 | 0.00 | 0.00 | 1019.5 | |
| 20260510164034 | -17 | 303 | 6.4 | 6.4 | 0.00 | 0.00 | 0.00 | 1019.5 | |
| 20260510163524 | -17 | 288 | 8.0 | 8.0 | 0.00 | 0.00 | 0.00 | 1019.5 | |
| 20260510163020 | -17 | 318 | 4.8 | 6.4 | 0.00 | 0.00 | 0.00 | 1019.2 | |
| 20260510162516 | -17 | 6 | 4.8 | 4.8 | 0.00 | 0.00 | 0.00 | 1019.2 | |
| 20260510162012 | -17 | 10 | 4.8 | 4.8 | 0.00 | 0.00 | 0.00 | 1019.2 | |
| 20260510161508 | -17 | 42 | 6.4 | 6.4 | 0.00 | 0.00 | 0.00 | 1019.2 | |
| 20260510161005 | -17 | 78 | 6.4 | 6.4 | 0.00 | 0.00 | 0.00 | 1019.2 | |
| 20260510160502 | -17 | 108 | 12.9 | 16.1 | 0.00 | 0.00 | 0.00 | 1019.2 | |
| 20260510155955 | -17 | 12 | 6.4 | 8.0 | 0.00 | 0.00 | 0.00 | 1019.2 | |
| 20260510155453 | -17 | 78 | 3.2 | 3.2 | 0.00 | 0.00 | 0.00 | 1019.2 | |
| 20260510154949 | -17 | 68 | 4.8 | 4.8 | 0.00 | 0.00 | 0.00 | 1019.2 | |
| 20260510154444 | -17 | 94 | 9.7 | 9.7 | 0.00 | 0.00 | 0.00 | 1018.8 | |
| 20260510153943 | -17 | 30 | 4.8 | 4.8 | 0.00 | 0.00 | 0.00 | 1018.8 | |
| 20260510153440 | -17 | 336 | 8.0 | 8.0 | 0.00 | 0.00 | 0.00 | 1018.8 | |
| 20260510152937 | -17 | 60 | 8.0 | 9.7 | 0.00 | 0.00 | 0.00 | 1018.8 | |
| 20260510152435 | -17 | 57 | 3.2 | 3.2 | 0.00 | 0.00 | 0.00 | 1018.8 | |
| 20260510151931 | -17 | 60 | 9.7 | 9.7 | 0.00 | 0.00 | 0.00 | 1018.8 | |
| 20260510151429 | -17 | 318 | 9.7 | 9.7 | 0.00 | 0.00 | 0.00 | 1019.2 | |
| 20260510150925 | -17 | 57 | 8.0 | 8.0 | 0.00 | 0.00 | 0.00 | 1019.2 | |
| 20260510150420 | -17 | 336 | 4.8 | 4.8 | 0.00 | 0.00 | 0.00 | 1019.2 | |
| 20260510145916 | -17 | 316 | 8.0 | 9.7 | 0.00 | 0.00 | 0.00 | 1018.5 | |
| 20260510145412 | -17 | 44 | 11.3 | 12.9 | 0.00 | 0.00 | 0.00 | 1018.5 | |
| 20260510144909 | -17 | 30 | 9.7 | 9.7 | 0.00 | 0.00 | 0.00 | 1018.5 | |
| 20260510144406 | -17 | 336 | 8.0 | 8.0 | 0.00 | 0.00 | 0.00 | 1018.2 | |
| 20260510143901 | -17 | 0 | 6.4 | 6.4 | 0.00 | 0.00 | 0.00 | 1018.2 | |
| 20260510143357 | -17 | 0 | 9.7 | 9.7 | 0.00 | 0.00 | 0.00 | 1018.2 | |
| 20260510142854 | -17 | 0 | 9.7 | 11.3 | 0.00 | 0.00 | 0.00 | 1018.5 | |
| 20260510142350 | -17 | 0 | 6.4 | 6.4 | 0.00 | 0.00 | 0.00 | 1018.5 | |
| 20260510141847 | -17 | 0 | 9.7 | 9.7 | 0.00 | 0.00 | 0.00 | 1018.5 | |
| 20260510141345 | -17 | 0 | 8.0 | 9.7 | 0.00 | 0.00 | 0.00 | 1018.5 | |
| 20260510140842 | -17 | 0 | 9.7 | 9.7 | 0.00 | 0.00 | 0.00 | 1018.5 | |
| 20260510140338 | -17 | 0 | 4.8 | 4.8 | 0.00 | 0.00 | 0.00 | 1018.5 | |
| 20260510135831 | -17 | 0 | 6.4 | 8.0 | 0.00 | 0.00 | 0.00 | 1018.5 | |
| 20260510135327 | -17 | 0 | 4.8 | 6.4 | 0.00 | 0.00 | 0.00 | 1018.5 | |
| 20260510134825 | -17 | 0 | 6.4 | 6.4 | 0.00 | 0.00 | 0.00 | 1018.5 | |
| 20260510134322 | -17 | 0 | 4.8 | 6.4 | 0.00 | 0.00 | 0.00 | 1018.5 | |
| 20260510133818 | -17 | 0 | 9.7 | 11.3 | 0.00 | 0.00 | 0.00 | 1018.5 | |
| 20260510133314 | -17 | 0 | 9.7 | 9.7 | 0.00 | 0.00 | 0.00 | 1018.5 | |
| 20260510132810 | -17 | 0 | 9.7 | 9.7 | 0.00 | 0.00 | 0.00 | 1018.2 | |
| 20260510132308 | -17 | 0 | 6.4 | 6.4 | 0.00 | 0.00 | 0.00 | 1018.2 | |
| 20260510131804 | -17 | 0 | 8.0 | 9.7 | 0.00 | 0.00 | 0.00 | 1018.2 | |
| 20260510131303 | -17 | 0 | 6.4 | 6.4 | 0.00 | 0.00 | 0.00 | 1017.7 | |
| 20260510130759 | -17 | 0 | 16.1 | 16.1 | 0.00 | 0.00 | 0.00 | 1017.7 | |
| 20260510130256 | -17 | 0 | 8.0 | 8.0 | 0.00 | 0.00 | 0.00 | 1017.7 | |
| 20260510125752 | -17 | 0 | 9.7 | 9.7 | 0.00 | 0.00 | 0.00 | 1017.7 | |
| 20260510125248 | -17 | 0.0 | 0.0 | 0.00 | 0.00 | 0.00 | 1006.7 | ||
| 20260510124744 | -17 | 0.0 | 0.0 | 0.00 | 0.00 | 0.00 | 1006.7 | ||
| 20260510124242 | -17 | 0.0 | 0.0 | 0.00 | 0.00 | 0.00 | 1006.7 | ||
| 20260510123731 | -17 | 0.0 | 0.0 | 0.00 | 0.00 | 0.00 | 1006.7 | ||
| 20260510123227 | -17 | 0.0 | 0.0 | 0.00 | 0.00 | 0.00 | 1006.7 | ||
| 20260510122723 | -17 | 0.0 | 0.0 | 0.00 | 0.00 | 0.00 | 1006.7 | ||
| 20260510122220 | -17 | 0.0 | 0.0 | 0.00 | 0.00 | 0.00 | 1006.7 | ||
| 20260510121716 | -17 | 0.0 | 0.0 | 0.00 | 0.00 | 0.00 | 1006.7 | ||
| 20260510121214 | -17 | 0.0 | 0.0 | 0.00 | 0.00 | 0.00 | 1006.7 | ||
| 20260510120711 | -17 | 0.0 | 0.0 | 0.00 | 0.00 | 0.00 | 1006.7 | ||
| 20260510120208 | -17 | 0.0 | 0.0 | 0.00 | 0.00 | 0.00 | 1006.7 | ||
| 20260510115703 | -17 | 0.0 | 0.0 | 0.00 | 0.00 | 0.00 | 1006.7 | ||
| 20260510115202 | -17 | 0.0 | 0.0 | 0.00 | 0.00 | 0.00 | 1006.7 | ||
| 20260510114657 | -17 | 0.0 | 0.0 | 0.00 | 0.00 | 0.00 | 1006.7 | ||
| 20260510114154 | -17 | 0.0 | 0.0 | 0.00 | 0.00 | 0.00 | 1006.7 | ||
| 20260510113648 | -17 | 0.0 | 0.0 | 0.00 | 0.00 | 0.00 | 1006.7 | ||
| 20260510113146 | -17 | 0.0 | 0.0 | 0.00 | 0.00 | 0.00 | 1006.7 | ||
| 20260510112643 | -17 | 0.0 | 0.0 | 0.00 | 0.00 | 0.00 | 1006.7 | ||
| 20260510112140 | -17 | 0.0 | 0.0 | 0.00 | 0.00 | 0.00 | 1006.7 | ||
| 20260510111636 | -17 | 0.0 | 0.0 | 0.00 | 0.00 | 0.00 | 1006.7 | ||
| 20260510111131 | -17 | 0.0 | 0.0 | 0.00 | 0.00 | 0.00 | 1006.7 | ||
| 20260510110627 | -17 | 0.0 | 0.0 | 0.00 | 0.00 | 0.00 | 1006.7 | ||
| 20260510110125 | -17 | 0.0 | 0.0 | 0.00 | 0.00 | 0.00 | 1006.7 | ||
| 20260510105620 | -17 | 0.0 | 0.0 | 0.00 | 0.00 | 0.00 | 1006.7 | ||
| 20260510105115 | -17 | 0.0 | 0.0 | 0.00 | 0.00 | 0.00 | 1006.7 | ||
| 20260510104612 | -17 | 0.0 | 0.0 | 0.00 | 0.00 | 0.00 | 1006.7 | ||
| 20260510104109 | -17 | 0.0 | 0.0 | 0.00 | 0.00 | 0.00 | 1006.7 | ||
| 20260510103606 | -17 | 0.0 | 0.0 | 0.00 | 0.00 | 0.00 | 1006.7 | ||
| 20260510103101 | -17 | 0.0 | 0.0 | 0.00 | 0.00 | 0.00 | 1006.7 | ||
| 20260510102557 | -17 | 0.0 | 0.0 | 0.00 | 0.00 | 0.00 | 1006.7 | ||
| 20260510102053 | -17 | 0.0 | 0.0 | 0.00 | 0.00 | 0.00 | 1006.7 | ||
| 20260510101551 | -17 | 0.0 | 0.0 | 0.00 | 0.00 | 0.00 | 1006.7 | ||
| 20260510101050 | -17 | 0.0 | 0.0 | 0.00 | 0.00 | 0.00 | 1006.7 | ||
| 20260510100545 | -17 | 0.0 | 0.0 | 0.00 | 0.00 | 0.00 | 1006.7 | ||
| 20260510100043 | -17 | 0.0 | 0.0 | 0.00 | 0.00 | 0.00 | 1006.7 | ||
| 20260510095538 | -17 | 0.0 | 0.0 | 0.00 | 0.00 | 0.00 | 1006.7 | ||
| 20260510095038 | -17 | 0.0 | 0.0 | 0.00 | 0.00 | 0.00 | 1006.7 | ||
| 20260510094533 | -17 | 0.0 | 0.0 | 0.00 | 0.00 | 0.00 | 1006.7 | ||
| 20260510094028 | -17 | 0.0 | 0.0 | 0.00 | 0.00 | 0.00 | 1006.7 | ||
| 20260510093524 | -17 | 0.0 | 0.0 | 0.00 | 0.00 | 0.00 | 1006.7 | ||
| 20260510093021 | -17 | 0.0 | 0.0 | 0.00 | 0.00 | 0.00 | 1006.7 | ||
| 20260510092518 | -17 | 0.0 | 0.0 | 0.00 | 0.00 | 0.00 | 1006.7 | ||
| 20260510092017 | -17 | 0.0 | 0.0 | 0.00 | 0.00 | 0.00 | 1006.7 | ||
| 20260510091515 | -17 | 0.0 | 0.0 | 0.00 | 0.00 | 0.00 | 1006.7 | ||
| 20260510091010 | -17 | 0.0 | 0.0 | 0.00 | 0.00 | 0.00 | 1006.7 | ||
| 20260510090508 | -17 | 0.0 | 0.0 | 0.00 | 0.00 | 0.00 | 1006.7 | ||
| 20260510090003 | -17 | 0.0 | 0.0 | 0.00 | 0.00 | 0.00 | 1006.7 | ||
| 20260510085458 | -17 | 0.0 | 0.0 | 0.00 | 0.00 | 0.00 | 1006.7 | ||
| 20260510084954 | -17 | 0.0 | 0.0 | 0.00 | 0.00 | 0.00 | 1006.7 | ||
| 20260510084452 | -17 | 0.0 | 0.0 | 0.00 | 0.00 | 0.00 | 1006.7 | ||
| 20260510083948 | -17 | 0.0 | 0.0 | 0.00 | 0.00 | 0.00 | 1006.7 | ||
| 20260510083445 | -17 | 0.0 | 0.0 | 0.00 | 0.00 | 0.00 | 1006.7 | ||
| 20260510082940 | -17 | 0.0 | 0.0 | 0.00 | 0.00 | 0.00 | 1006.7 | ||
| 20260510082438 | -17 | 0.0 | 0.0 | 0.00 | 0.00 | 0.00 | 1006.7 | ||
| 20260510081937 | -17 | 0.0 | 0.0 | 0.00 | 0.00 | 0.00 | 1006.7 | ||
| 20260510081433 | -17 | 0.0 | 0.0 | 0.00 | 0.00 | 0.00 | 1006.7 | ||
| 20260510080930 | -17 | 0.0 | 0.0 | 0.00 | 0.00 | 0.00 | 1006.7 | ||
| 20260510080428 | -17 | 0.0 | 0.0 | 0.00 | 0.00 | 0.00 | 1006.7 | ||
| 20260510075925 | -17 | 0.0 | 0.0 | 0.00 | 0.00 | 0.00 | 1006.7 | ||
| 20260510075424 | -17 | 0.0 | 0.0 | 0.00 | 0.00 | 0.00 | 1006.7 | ||
| 20260510074920 | -17 | 0.0 | 0.0 | 0.00 | 0.00 | 0.00 | 1006.7 | ||
| 20260510074417 | -17 | 0.0 | 0.0 | 0.00 | 0.00 | 0.00 | 1006.7 | ||
| 20260510073913 | -17 | 0.0 | 0.0 | 0.00 | 0.00 | 0.00 | 1006.7 | ||
| 20260510073409 | -17 | 0.0 | 0.0 | 0.00 | 0.00 | 0.00 | 1006.7 | ||
| 20260510072905 | -17 | 0.0 | 0.0 | 0.00 | 0.00 | 0.00 | 1006.7 | ||
| 20260510072403 | -17 | 0.0 | 0.0 | 0.00 | 0.00 | 0.00 | 1006.7 | ||
| 20260510071858 | -17 | 0.0 | 0.0 | 0.00 | 0.00 | 0.00 | 1006.7 | ||
| 20260510071355 | -17 | 0.0 | 0.0 | 0.00 | 0.00 | 0.00 | 1006.7 | ||
| 20260510070853 | -17 | 0.0 | 0.0 | 0.00 | 0.00 | 0.00 | 1006.7 | ||
| 20260510070350 | -17 | 0.0 | 0.0 | 0.00 | 0.00 | 0.00 | 1006.7 | ||
| 20260510065850 | -17 | 0.0 | 0.0 | 0.00 | 0.00 | 0.00 | 1006.7 | ||
| 20260510065347 | -17 | 0.0 | 0.0 | 0.00 | 0.00 | 0.00 | 1006.7 | ||
| 20260510064843 | -17 | 0.0 | 0.0 | 0.00 | 0.00 | 0.00 | 1006.7 | ||
| 20260510064341 | -17 | 0.0 | 0.0 | 0.00 | 0.00 | 0.00 | 1006.7 | ||
| 20260510063837 | -17 | 0.0 | 0.0 | 0.00 | 0.00 | 0.00 | 1006.7 | ||
| 20260510063334 | -17 | 0.0 | 0.0 | 0.00 | 0.00 | 0.00 | 1006.7 | ||
| 20260510062831 | -17 | 0.0 | 0.0 | 0.00 | 0.00 | 0.00 | 1006.7 | ||
| 20260510062326 | -17 | 0.0 | 0.0 | 0.00 | 0.00 | 0.00 | 1006.7 | ||
| 20260510061821 | -17 | 0.0 | 0.0 | 0.00 | 0.00 | 0.00 | 1006.7 | ||
| 20260510061319 | -17 | 0.0 | 0.0 | 0.00 | 0.00 | 0.00 | 1006.7 | ||
| 20260510060815 | -17 | 0.0 | 0.0 | 0.00 | 0.00 | 0.00 | 1006.7 | ||
| 20260510060307 | -17 | 0.0 | 0.0 | 0.00 | 0.00 | 0.00 | 1006.7 | ||
| 20260510055804 | -17 | 0.0 | 0.0 | 0.00 | 0.00 | 0.00 | 1006.7 | ||
| 20260510055306 | -17 | 0.0 | 0.0 | 0.00 | 0.00 | 0.00 | 1006.7 | ||
| 20260510054802 | -17 | 0.0 | 0.0 | 0.00 | 0.00 | 0.00 | 1006.7 | ||
| 20260510054258 | -17 | 0.0 | 0.0 | 0.00 | 0.00 | 0.00 | 1006.7 | ||
| 20260510053758 | -17 | 0.0 | 0.0 | 0.00 | 0.00 | 0.00 | 1006.7 | ||
| 20260510053253 | -17 | 0.0 | 0.0 | 0.00 | 0.00 | 0.00 | 1006.7 | ||
| 20260510052750 | -17 | 0.0 | 0.0 | 0.00 | 0.00 | 0.00 | 1006.7 | ||
| 20260510052240 | -17 | 0.0 | 0.0 | 0.00 | 0.00 | 0.00 | 1006.7 | ||
| 20260510051737 | -17 | 0.0 | 0.0 | 0.00 | 0.00 | 0.00 | 1006.7 | ||
| 20260510051233 | -17 | 0.0 | 0.0 | 0.00 | 0.00 | 0.00 | 1006.7 | ||
| 20260510050730 | -17 | 0.0 | 0.0 | 0.00 | 0.00 | 0.00 | 1006.7 | ||
| 20260510050227 | -17 | 0.0 | 0.0 | 0.00 | 0.00 | 0.00 | 1006.7 | ||
| 20260510045723 | -17 | 0.0 | 0.0 | 0.00 | 0.00 | 0.00 | 1006.7 | ||
| 20260510045221 | -17 | 0.0 | 0.0 | 0.00 | 0.00 | 0.00 | 1006.7 | ||
| 20260510044717 | -17 | 0.0 | 0.0 | 0.00 | 0.00 | 0.00 | 1006.7 | ||
| 20260510044216 | -17 | 0.0 | 0.0 | 0.00 | 0.00 | 0.00 | 1006.7 | ||
| 20260510043710 | -17 | 0.0 | 0.0 | 0.00 | 0.00 | 0.00 | 1006.7 | ||
| 20260510043207 | -17 | 0.0 | 0.0 | 0.00 | 0.00 | 0.00 | 1006.7 | ||
| 20260510042704 | -17 | 0.0 | 0.0 | 0.00 | 0.00 | 0.00 | 1006.7 | ||
| 20260510042201 | -17 | 0.0 | 0.0 | 0.00 | 0.00 | 0.00 | 1006.7 | ||
| 20260510041657 | -17 | 0.0 | 0.0 | 0.00 | 0.00 | 0.00 | 1006.7 | ||
| 20260510041155 | -17 | 0.0 | 0.0 | 0.00 | 0.00 | 0.00 | 1006.7 | ||
| 20260510040652 | -17 | 0.0 | 0.0 | 0.00 | 0.00 | 0.00 | 1006.7 | ||
| 20260510040148 | -17 | 0.0 | 0.0 | 0.00 | 0.00 | 0.00 | 1006.7 | ||
| 20260510035643 | -17 | 0.0 | 0.0 | 0.00 | 0.00 | 0.00 | 1006.7 | ||
| 20260510035138 | -17 | 0.0 | 0.0 | 0.00 | 0.00 | 0.00 | 1006.7 | ||
| 20260510034636 | -17 | 0.0 | 0.0 | 0.00 | 0.00 | 0.00 | 1006.7 | ||
| 20260510034133 | -17 | 0.0 | 0.0 | 0.00 | 0.00 | 0.00 | 1006.7 | ||
| 20260510033629 | -17 | 0.0 | 0.0 | 0.00 | 0.00 | 0.00 | 1006.7 | ||
| 20260510033128 | -17 | 0.0 | 0.0 | 0.00 | 0.00 | 0.00 | 1006.7 | ||
| 20260510032623 | -17 | 0.0 | 0.0 | 0.00 | 0.00 | 0.00 | 1006.7 | ||
| 20260510032119 | -17 | 0.0 | 0.0 | 0.00 | 0.00 | 0.00 | 1006.7 | ||
| 20260510031614 | -17 | 0.0 | 0.0 | 0.00 | 0.00 | 0.00 | 1006.7 | ||
| 20260510031111 | -17 | 0.0 | 0.0 | 0.00 | 0.00 | 0.00 | 1006.7 | ||
| 20260510030605 | -17 | 0.0 | 0.0 | 0.00 | 0.00 | 0.00 | 1006.7 | ||
| 20260510030103 | -17 | 0.0 | 0.0 | 0.00 | 0.00 | 0.00 | 1006.7 | ||
| 20260510025600 | -17 | 0.0 | 0.0 | 0.00 | 0.00 | 0.00 | 1006.7 | ||
| 20260510025058 | -17 | 0.0 | 0.0 | 0.00 | 0.00 | 0.00 | 1006.7 | ||
| 20260510024554 | -17 | 0.0 | 0.0 | 0.00 | 0.00 | 0.00 | 1006.7 | ||
| 20260510024050 | -17 | 0.0 | 0.0 | 0.00 | 0.00 | 0.00 | 1006.7 | ||
| 20260510023546 | -17 | 0.0 | 0.0 | 0.00 | 0.00 | 0.00 | 1006.7 | ||
| 20260510023044 | -17 | 0.0 | 0.0 | 0.00 | 0.00 | 0.00 | 1006.7 | ||
| 20260510022543 | -17 | 0.0 | 0.0 | 0.00 | 0.00 | 0.00 | 1006.7 | ||
| 20260510022037 | -17 | 0.0 | 0.0 | 0.00 | 0.00 | 0.00 | 1006.7 | ||
| 20260510021534 | -17 | 0.0 | 0.0 | 0.00 | 0.00 | 0.00 | 1006.7 | ||
| 20260510021032 | -17 | 0.0 | 0.0 | 0.00 | 0.00 | 0.00 | 1006.7 | ||
| 20260510020526 | -17 | 0.0 | 0.0 | 0.00 | 0.00 | 0.00 | 1006.7 | ||
| 20260510020022 | -17 | 0.0 | 0.0 | 0.00 | 0.00 | 0.00 | 1006.7 | ||
| 20260510015518 | -17 | 0.0 | 0.0 | 0.00 | 0.00 | 0.00 | 1006.7 | ||
| 20260510015014 | -17 | 0.0 | 0.0 | 0.00 | 0.00 | 0.00 | 1006.7 | ||
| 20260510014511 | -17 | 0.0 | 0.0 | 0.00 | 0.00 | 0.00 | 1006.7 | ||
| 20260510014008 | -17 | 0.0 | 0.0 | 0.00 | 0.00 | 0.00 | 1006.7 | ||
| 20260510013502 | -17 | 0.0 | 0.0 | 0.00 | 0.00 | 0.00 | 1006.7 | ||
| 20260510012958 | -17 | 0.0 | 0.0 | 0.00 | 0.00 | 0.00 | 1006.7 | ||
| 20260510012453 | -17 | 0.0 | 0.0 | 0.00 | 0.00 | 0.00 | 1006.7 | ||
| 20260510011948 | -17 | 0.0 | 0.0 | 0.00 | 0.00 | 0.00 | 1006.7 | ||
| 20260510011444 | -17 | 0.0 | 0.0 | 0.00 | 0.00 | 0.00 | 1006.7 | ||
| 20260510010940 | -17 | 0.0 | 0.0 | 0.00 | 0.00 | 0.00 | 1006.7 | ||
| 20260510010437 | -17 | 0.0 | 0.0 | 0.00 | 0.00 | 0.00 | 1006.7 | ||
| 20260510005934 | -17 | 0.0 | 0.0 | 0.00 | 0.00 | 0.00 | 1006.7 | ||
| 20260510005430 | -17 | 0.0 | 0.0 | 0.00 | 0.00 | 0.00 | 1006.7 | ||
| 20260510004927 | -17 | 0.0 | 0.0 | 0.00 | 0.00 | 0.00 | 1006.7 | ||
| 20260510004425 | -17 | 0.0 | 0.0 | 0.00 | 0.00 | 0.00 | 1006.7 | ||
| 20260510003923 | -17 | 0.0 | 0.0 | 0.00 | 0.00 | 0.00 | 1006.7 | ||
| 20260510003419 | -17 | 0.0 | 0.0 | 0.00 | 0.00 | 0.00 | 1006.7 | ||
| 20260510002918 | -17 | 0.0 | 0.0 | 0.00 | 0.00 | 0.00 | 1006.7 | ||
| 20260510002416 | -17 | 0.0 | 0.0 | 0.00 | 0.00 | 0.00 | 1006.7 | ||
| 20260510001912 | -17 | 0.0 | 0.0 | 0.00 | 0.00 | 0.00 | 1006.7 | ||
| 20260510001410 | -17 | 0.0 | 0.0 | 0.00 | 0.00 | 0.00 | 1006.7 | ||
| 20260510000907 | -17 | 0.0 | 0.0 | 0.00 | 0.00 | 0.00 | 1006.7 | ||
| 20260510000404 | -17 | 0.0 | 0.0 | 0.00 | 0.00 | 0.00 | 1006.7 | ||
| 20260509235900 | -17 | 0.0 | 0.0 | 0.00 | 0.00 | 0.00 | 1006.7 | ||
| 20260509235357 | -17 | 0.0 | 0.0 | 0.00 | 0.00 | 0.00 | 1006.7 | ||
| 20260509234852 | -17 | 0.0 | 0.0 | 0.00 | 0.00 | 0.00 | 1006.7 | ||
| 20260509234350 | -17 | 0.0 | 0.0 | 0.00 | 0.00 | 0.00 | 1006.7 | ||
| 20260509233848 | -17 | 0.0 | 0.0 | 0.00 | 0.00 | 0.00 | 1006.7 | ||
| 20260509233345 | -17 | 0.0 | 0.0 | 0.00 | 0.00 | 0.00 | 1006.7 | ||
| 20260509232841 | -17 | 0.0 | 0.0 | 0.00 | 0.00 | 0.00 | 1006.7 | ||
| 20260509232339 | -17 | 0.0 | 0.0 | 0.00 | 0.00 | 0.00 | 1006.7 | ||
| 20260509231835 | -17 | 0.0 | 0.0 | 0.00 | 0.00 | 0.00 | 1006.7 | ||
| 20260509231332 | -17 | 0.0 | 0.0 | 0.00 | 0.00 | 0.00 | 1006.7 | ||
| 20260509230829 | -17 | 0.0 | 0.0 | 0.00 | 0.00 | 0.00 | 1006.7 | ||
| 20260509230326 | -17 | 0.0 | 0.0 | 0.00 | 0.00 | 0.00 | 1006.7 | ||
| 20260509225821 | -17 | 0.0 | 0.0 | 0.00 | 0.00 | 0.00 | 1006.7 | ||
| 20260509225319 | -17 | 0.0 | 0.0 | 0.00 | 0.00 | 0.00 | 1006.7 | ||
| 20260509224814 | -17 | 0.0 | 0.0 | 0.00 | 0.00 | 0.00 | 1006.7 | ||
| 20260509224311 | -17 | 0.0 | 0.0 | 0.00 | 0.00 | 0.00 | 1006.7 | ||
| 20260509223807 | -17 | 270 | 16.1 | 17.7 | 0.23 | 0.23 | 0.23 | 1005.7 | |
| 20260509223304 | -17 | 270 | 16.1 | 17.7 | 0.23 | 0.23 | 0.23 | 1005.7 | |
| 20260509222801 | -17 | 270 | 16.1 | 17.7 | 0.23 | 0.23 | 0.23 | 1005.7 | |
| 20260509222256 | -17 | 270 | 8.0 | 8.0 | 0.18 | 0.18 | 0.18 | 1005.7 | |
| 20260509221753 | -17 | 270 | 9.7 | 11.3 | 0.00 | 0.00 | 0.00 | 1005.7 | |
| 20260509221250 | -17 | 270 | 11.3 | 11.3 | 0.00 | 0.00 | 0.00 | 1005.3 | |
| 20260509220745 | -17 | 204 | 11.3 | 11.3 | 0.00 | 0.00 | 0.00 | 1005.3 | |
| 20260509220242 | -17 | 259 | 9.7 | 9.7 | 0.00 | 0.00 | 0.00 | 1005.3 | |
| 20260509215737 | -17 | 162 | 11.3 | 12.9 | 0.00 | 0.00 | 0.00 | 1005.0 | |
| 20260509215234 | -17 | 251 | 14.5 | 16.1 | 0.00 | 0.00 | 0.00 | 1005.0 | |
| 20260509214731 | -17 | 246 | 17.7 | 20.9 | 0.00 | 0.00 | 0.00 | 1005.0 | |
| 20260509214228 | -17 | 228 | 9.7 | 11.3 | 0.00 | 0.00 | 0.00 | 1004.7 | |
| 20260509213725 | -17 | 258 | 12.9 | 16.1 | 0.00 | 0.00 | 0.00 | 1004.7 | |
| 20260509213221 | -17 | 337 | 11.3 | 14.5 | 0.00 | 0.00 | 0.00 | 1004.7 | |
| 20260509212718 | -17 | 278 | 8.0 | 8.0 | 0.00 | 0.00 | 0.00 | 1004.7 | |
| 20260509212215 | -17 | 169 | 14.5 | 17.7 | 0.00 | 0.00 | 0.00 | 1004.7 | |
| 20260509211711 | -17 | 189 | 9.7 | 9.7 | 0.00 | 0.00 | 0.00 | 1004.7 | |
| 20260509211207 | -17 | 240 | 4.8 | 6.4 | 0.00 | 0.00 | 0.00 | 1005.0 | |
| 20260509210703 | -17 | 264 | 12.9 | 16.1 | 0.00 | 0.00 | 0.00 | 1005.0 | |
| 20260509210156 | -17 | 131 | 9.7 | 11.3 | 0.00 | 0.00 | 0.00 | 1005.0 | |
| 20260509205651 | -17 | 228 | 16.1 | 20.9 | 0.00 | 0.00 | 0.00 | 1005.3 | |
| 20260509205150 | -17 | 206 | 16.1 | 16.1 | 0.00 | 0.00 | 0.00 | 1005.3 | |
| 20260509204646 | -17 | 175 | 9.7 | 9.7 | 0.00 | 0.00 | 0.00 | 1005.3 | |
| 20260509204143 | -17 | 282 | 16.1 | 16.1 | 0.00 | 0.00 | 0.00 | 1005.3 |